首页
METAR-TAF:

METAR-TAF

机场 :

萨斯卡通约翰·乔治·迪芬贝克国际机场

萨斯卡通, 薩斯喀徹溫, 加拿大

纬度: 52-10N, 经度: 106-41W, 海拔: 501米

当前天气观测

该预报发布于13分钟前的23:00 UTC
风速14节,风向东转东北,有时为20节阵风
温度 25°C
湿度 57%
气压 1008 hPa
能見度: 24.1公里
多云层高于3700英尺, 塔状积云.
多云层高于8000英尺

METAR: CYXE 232300Z 07014G20KT 15SM BKN037TCU BKN080 25/16 A2978 RMK TCU5AC2 SLP090 DENSITY ALT 3400FT

时间: 17:13 (23:13 UTC)

预报

该预报发布于5小时和27分钟前的17:46 UTC
预报有效从23日的 18点(UTC)到 24日的 18点(UTC)
风速12节,风向东北,有时为22节阵风
能見度: 10公里
散云层高于2000英尺
多云层高于9000英尺
短暂存在
从 23日的 18点(UTC)到 23日的 21点(UTC)
能見度: 10公里
多云层高于2000英尺
阴天层高于9000英尺, 积雨云.
附近有雷暴
从 23日的 2100点(UTC)
风速12节,风向东北,有时为22节阵风
能見度: 10公里
散云层高于4000英尺, 积雨云.
多云层高于10000英尺
几率 40%
从 23日的 21点(UTC)到 24日的 04点(UTC)
风速15节,风向多变,有时为25节阵风
能見度: 4.8公里
多云层高于4000英尺, 积雨云.
阴天层高于10000英尺
雷暴, 雨
从 24日的 0400点(UTC)
风速8节,风向
能見度: 10公里
散云层高于1200英尺
阴天层高于3000英尺
短暂存在
从 24日的 04点(UTC)到 24日的 15点(UTC)
能見度: 8.0公里
散云层高于800英尺
阴天层高于1500英尺
小阵雨, 轻雾
从 24日的 1500点(UTC)
风速8节,风向东南
能見度: 10公里
散云层高于1200英尺
多云层高于2500英尺

TAF: CYXE 231746Z 2318/2418 05012G22KT P6SM SCT020 BKN090 TEMPO 2318/2321 P6SM VCTS BKN020 OVC090CB FM232100 05012G22KT P6SM SCT040CB BKN100 PROB40 2321/2404 VRB15G25KT 3SM TSRA BKN040CB OVC100 FM240400 09008KT P6SM SCT012 OVC030 TEMPO 2404/2415 5SM -SHRA BR SCT008 OVC015 FM241500 14008KT P6SM SCT012 BKN025 RMK NXT FCST BY 240000Z

超过4000个机场的气象观测和天气预报(METAR&TAF报告)。

可查询的气象台以黄色和红色小点在地图上表示。

将鼠标移到小点上方,可查看气象台名称。

然后点击查看天气观测和预报。

如需切换地图:点击带黑十字的绿色按钮放大地图;点击带横线的绿色按钮缩小地图;或者点击绿色箭头查看邻近地区的地图。


METAR-TAF: